sensor_id;sensor_type;location;lat;lon;timestamp;P1;durP1;ratioP1;P2;durP2;ratioP2
54883;SDS011;40776;52.880;6.016;2023-04-24T00:01:14;3.47;;;2.22;;
54883;SDS011;40776;52.880;6.016;2023-04-24T00:03:42;3.15;;;1.90;;
54883;SDS011;40776;52.880;6.016;2023-04-24T00:06:08;2.92;;;1.88;;
54883;SDS011;40776;52.880;6.016;2023-04-24T00:08:34;2.58;;;1.85;;
54883;SDS011;40776;52.880;6.016;2023-04-24T00:11:01;3.60;;;2.20;;
54883;SDS011;40776;52.880;6.016;2023-04-24T00:13:27;3.10;;;1.90;;
54883;SDS011;40776;52.880;6.016;2023-04-24T00:15:53;3.03;;;2.10;;
54883;SDS011;40776;52.880;6.016;2023-04-24T00:18:19;3.65;;;1.98;;
54883;SDS011;40776;52.880;6.016;2023-04-24T00:20:46;3.00;;;1.95;;
54883;SDS011;40776;52.880;6.016;2023-04-24T00:23:12;2.80;;;2.03;;
54883;SDS011;40776;52.880;6.016;2023-04-24T00:25:38;4.32;;;2.40;;
54883;SDS011;40776;52.880;6.016;2023-04-24T00:28:05;3.08;;;2.40;;
54883;SDS011;40776;52.880;6.016;2023-04-24T00:30:31;3.78;;;2.45;;
54883;SDS011;40776;52.880;6.016;2023-04-24T00:32:57;4.00;;;2.70;;
54883;SDS011;40776;52.880;6.016;2023-04-24T00:35:23;5.32;;;2.42;;
54883;SDS011;40776;52.880;6.016;2023-04-24T00:37:49;2.92;;;1.90;;
54883;SDS011;40776;52.880;6.016;2023-04-24T00:40:15;3.20;;;2.45;;
54883;SDS011;40776;52.880;6.016;2023-04-24T00:42:41;3.70;;;2.28;;
54883;SDS011;40776;52.880;6.016;2023-04-24T00:45:07;4.25;;;2.67;;
54883;SDS011;40776;52.880;6.016;2023-04-24T00:47:33;4.90;;;2.85;;
54883;SDS011;40776;52.880;6.016;2023-04-24T00:50:05;3.58;;;2.72;;
54883;SDS011;40776;52.880;6.016;2023-04-24T00:52:32;4.25;;;2.50;;
54883;SDS011;40776;52.880;6.016;2023-04-24T00:54:58;3.80;;;2.20;;
54883;SDS011;40776;52.880;6.016;2023-04-24T00:57:24;3.47;;;2.60;;
54883;SDS011;40776;52.880;6.016;2023-04-24T00:59:51;6.55;;;3.08;;
54883;SDS011;40776;52.880;6.016;2023-04-24T01:02:17;4.75;;;2.88;;
54883;SDS011;40776;52.880;6.016;2023-04-24T01:04:43;5.82;;;3.63;;
54883;SDS011;40776;52.880;6.016;2023-04-24T01:07:09;4.78;;;3.28;;
54883;SDS011;40776;52.880;6.016;2023-04-24T01:09:42;4.10;;;3.22;;
54883;SDS011;40776;52.880;6.016;2023-04-24T01:12:12;5.30;;;3.40;;
54883;SDS011;40776;52.880;6.016;2023-04-24T01:14:38;7.13;;;4.80;;
54883;SDS011;40776;52.880;6.016;2023-04-24T01:17:04;4.65;;;3.50;;
54883;SDS011;40776;52.880;6.016;2023-04-24T01:19:30;4.90;;;3.85;;
54883;SDS011;40776;52.880;6.016;2023-04-24T01:21:58;4.88;;;4.07;;
54883;SDS011;40776;52.880;6.016;2023-04-24T01:24:24;6.65;;;3.85;;
54883;SDS011;40776;52.880;6.016;2023-04-24T01:26:50;4.38;;;3.53;;
54883;SDS011;40776;52.880;6.016;2023-04-24T01:29:16;6.10;;;5.03;;
54883;SDS011;40776;52.880;6.016;2023-04-24T01:31:42;5.10;;;4.05;;
54883;SDS011;40776;52.880;6.016;2023-04-24T01:34:08;5.25;;;3.92;;
54883;SDS011;40776;52.880;6.016;2023-04-24T01:36:35;5.80;;;4.60;;
54883;SDS011;40776;52.880;6.016;2023-04-24T01:39:01;5.93;;;4.75;;
54883;SDS011;40776;52.880;6.016;2023-04-24T01:41:28;7.18;;;5.63;;
54883;SDS011;40776;52.880;6.016;2023-04-24T01:43:55;6.85;;;4.75;;
54883;SDS011;40776;52.880;6.016;2023-04-24T01:46:22;7.68;;;5.40;;
54883;SDS011;40776;52.880;6.016;2023-04-24T01:48:49;7.35;;;5.90;;
54883;SDS011;40776;52.880;6.016;2023-04-24T01:51:16;8.10;;;6.07;;
54883;SDS011;40776;52.880;6.016;2023-04-24T01:53:42;7.43;;;5.78;;
54883;SDS011;40776;52.880;6.016;2023-04-24T01:56:08;7.22;;;5.90;;
54883;SDS011;40776;52.880;6.016;2023-04-24T01:58:35;9.43;;;6.22;;
54883;SDS011;40776;52.880;6.016;2023-04-24T02:01:01;7.47;;;5.80;;
54883;SDS011;40776;52.880;6.016;2023-04-24T02:03:27;8.02;;;6.38;;
54883;SDS011;40776;52.880;6.016;2023-04-24T02:05:53;9.10;;;6.90;;
54883;SDS011;40776;52.880;6.016;2023-04-24T02:08:19;9.40;;;7.45;;
54883;SDS011;40776;52.880;6.016;2023-04-24T02:10:45;8.98;;;7.28;;
54883;SDS011;40776;52.880;6.016;2023-04-24T02:13:11;11.55;;;7.60;;
54883;SDS011;40776;52.880;6.016;2023-04-24T02:15:37;9.52;;;7.80;;
54883;SDS011;40776;52.880;6.016;2023-04-24T02:18:03;14.30;;;9.32;;
54883;SDS011;40776;52.880;6.016;2023-04-24T02:20:29;12.25;;;8.70;;
54883;SDS011;40776;52.880;6.016;2023-04-24T02:22:55;12.20;;;9.10;;
54883;SDS011;40776;52.880;6.016;2023-04-24T02:25:21;13.70;;;9.75;;
54883;SDS011;40776;52.880;6.016;2023-04-24T02:27:47;14.75;;;10.05;;
54883;SDS011;40776;52.880;6.016;2023-04-24T02:30:13;13.48;;;9.80;;
54883;SDS011;40776;52.880;6.016;2023-04-24T02:32:39;15.55;;;11.27;;
54883;SDS011;40776;52.880;6.016;2023-04-24T02:35:06;15.60;;;10.40;;
54883;SDS011;40776;52.880;6.016;2023-04-24T02:37:33;14.27;;;11.10;;
54883;SDS011;40776;52.880;6.016;2023-04-24T02:39:59;15.68;;;10.18;;
54883;SDS011;40776;52.880;6.016;2023-04-24T02:42:25;16.00;;;11.32;;
54883;SDS011;40776;52.880;6.016;2023-04-24T02:44:51;18.30;;;11.10;;
54883;SDS011;40776;52.880;6.016;2023-04-24T02:47:17;16.20;;;11.18;;
54883;SDS011;40776;52.880;6.016;2023-04-24T02:49:43;15.07;;;10.85;;
54883;SDS011;40776;52.880;6.016;2023-04-24T02:52:09;14.63;;;10.88;;
54883;SDS011;40776;52.880;6.016;2023-04-24T02:54:35;13.98;;;9.55;;
54883;SDS011;40776;52.880;6.016;2023-04-24T02:57:01;13.95;;;9.90;;
54883;SDS011;40776;52.880;6.016;2023-04-24T02:59:27;13.55;;;10.63;;
54883;SDS011;40776;52.880;6.016;2023-04-24T03:01:54;15.75;;;10.65;;
54883;SDS011;40776;52.880;6.016;2023-04-24T03:04:20;12.30;;;9.85;;
54883;SDS011;40776;52.880;6.016;2023-04-24T03:06:47;13.48;;;10.35;;
54883;SDS011;40776;52.880;6.016;2023-04-24T03:09:13;14.35;;;10.68;;
54883;SDS011;40776;52.880;6.016;2023-04-24T03:11:39;15.02;;;11.18;;
54883;SDS011;40776;52.880;6.016;2023-04-24T03:14:05;17.58;;;11.13;;
54883;SDS011;40776;52.880;6.016;2023-04-24T03:16:31;15.48;;;11.68;;
54883;SDS011;40776;52.880;6.016;2023-04-24T03:21:32;15.82;;;11.68;;
54883;SDS011;40776;52.880;6.016;2023-04-24T03:23:58;15.60;;;11.68;;
54883;SDS011;40776;52.880;6.016;2023-04-24T03:26:24;18.77;;;13.45;;
54883;SDS011;40776;52.880;6.016;2023-04-24T03:28:50;17.25;;;12.40;;
54883;SDS011;40776;52.880;6.016;2023-04-24T03:31:16;18.65;;;12.35;;
54883;SDS011;40776;52.880;6.016;2023-04-24T03:33:42;18.00;;;13.27;;
54883;SDS011;40776;52.880;6.016;2023-04-24T03:36:08;17.63;;;12.85;;
54883;SDS011;40776;52.880;6.016;2023-04-24T03:38:34;17.70;;;12.50;;
54883;SDS011;40776;52.880;6.016;2023-04-24T03:41:00;20.17;;;12.75;;
54883;SDS011;40776;52.880;6.016;2023-04-24T03:43:26;17.40;;;11.18;;
54883;SDS011;40776;52.880;6.016;2023-04-24T03:45:53;12.05;;;7.97;;
54883;SDS011;40776;52.880;6.016;2023-04-24T03:48:19;9.63;;;6.65;;
54883;SDS011;40776;52.880;6.016;2023-04-24T03:50:45;10.13;;;5.85;;
54883;SDS011;40776;52.880;6.016;2023-04-24T03:53:11;8.27;;;5.63;;
54883;SDS011;40776;52.880;6.016;2023-04-24T03:55:37;7.75;;;5.35;;
54883;SDS011;40776;52.880;6.016;2023-04-24T03:58:03;6.22;;;4.35;;
54883;SDS011;40776;52.880;6.016;2023-04-24T04:00:29;5.60;;;3.88;;
54883;SDS011;40776;52.880;6.016;2023-04-24T04:02:56;7.18;;;4.40;;
54883;SDS011;40776;52.880;6.016;2023-04-24T04:05:22;7.25;;;4.93;;
54883;SDS011;40776;52.880;6.016;2023-04-24T04:07:48;7.40;;;5.38;;
54883;SDS011;40776;52.880;6.016;2023-04-24T04:10:14;8.40;;;5.95;;
54883;SDS011;40776;52.880;6.016;2023-04-24T04:12:42;9.63;;;5.40;;
54883;SDS011;40776;52.880;6.016;2023-04-24T04:15:08;10.77;;;6.10;;
54883;SDS011;40776;52.880;6.016;2023-04-24T04:17:34;9.65;;;6.47;;
54883;SDS011;40776;52.880;6.016;2023-04-24T04:20:00;11.02;;;6.65;;
54883;SDS011;40776;52.880;6.016;2023-04-24T04:22:30;10.23;;;7.05;;
54883;SDS011;40776;52.880;6.016;2023-04-24T04:24:56;12.73;;;7.95;;
54883;SDS011;40776;52.880;6.016;2023-04-24T04:27:22;13.48;;;7.78;;
54883;SDS011;40776;52.880;6.016;2023-04-24T04:29:48;16.80;;;10.45;;
54883;SDS011;40776;52.880;6.016;2023-04-24T04:32:15;16.55;;;10.10;;
54883;SDS011;40776;52.880;6.016;2023-04-24T04:34:41;16.90;;;10.35;;
54883;SDS011;40776;52.880;6.016;2023-04-24T04:37:07;10.93;;;6.20;;
54883;SDS011;40776;52.880;6.016;2023-04-24T04:39:35;12.27;;;7.90;;
54883;SDS011;40776;52.880;6.016;2023-04-24T04:42:01;14.43;;;7.38;;
54883;SDS011;40776;52.880;6.016;2023-04-24T04:44:27;11.57;;;7.25;;
54883;SDS011;40776;52.880;6.016;2023-04-24T04:46:53;12.30;;;6.38;;
54883;SDS011;40776;52.880;6.016;2023-04-24T04:49:21;11.13;;;6.53;;
54883;SDS011;40776;52.880;6.016;2023-04-24T04:51:48;12.13;;;7.03;;
54883;SDS011;40776;52.880;6.016;2023-04-24T04:54:17;10.68;;;6.82;;
54883;SDS011;40776;52.880;6.016;2023-04-24T04:56:43;13.50;;;7.43;;
54883;SDS011;40776;52.880;6.016;2023-04-24T04:59:08;12.98;;;7.63;;
54883;SDS011;40776;52.880;6.016;2023-04-24T05:01:35;11.32;;;7.18;;
54883;SDS011;40776;52.880;6.016;2023-04-24T05:04:01;9.52;;;5.30;;
54883;SDS011;40776;52.880;6.016;2023-04-24T05:06:27;10.18;;;6.43;;
54883;SDS011;40776;52.880;6.016;2023-04-24T05:08:53;9.40;;;4.97;;
54883;SDS011;40776;52.880;6.016;2023-04-24T05:11:22;8.45;;;4.90;;
54883;SDS011;40776;52.880;6.016;2023-04-24T05:13:48;6.13;;;3.85;;
54883;SDS011;40776;52.880;6.016;2023-04-24T05:16:14;5.30;;;3.15;;
54883;SDS011;40776;52.880;6.016;2023-04-24T05:18:41;4.30;;;2.67;;
54883;SDS011;40776;52.880;6.016;2023-04-24T05:21:07;5.53;;;2.22;;
54883;SDS011;40776;52.880;6.016;2023-04-24T05:23:33;5.32;;;2.80;;
54883;SDS011;40776;52.880;6.016;2023-04-24T05:25:59;6.82;;;2.30;;
54883;SDS011;40776;52.880;6.016;2023-04-24T05:28:25;5.47;;;2.55;;
54883;SDS011;40776;52.880;6.016;2023-04-24T05:30:53;5.82;;;2.45;;
54883;SDS011;40776;52.880;6.016;2023-04-24T05:33:20;4.05;;;2.35;;
54883;SDS011;40776;52.880;6.016;2023-04-24T05:35:47;5.40;;;2.22;;
54883;SDS011;40776;52.880;6.016;2023-04-24T05:38:13;4.25;;;2.67;;
54883;SDS011;40776;52.880;6.016;2023-04-24T05:40:42;6.30;;;3.63;;
54883;SDS011;40776;52.880;6.016;2023-04-24T05:43:08;6.75;;;3.72;;
54883;SDS011;40776;52.880;6.016;2023-04-24T05:45:34;9.43;;;4.95;;
54883;SDS011;40776;52.880;6.016;2023-04-24T05:48:01;7.60;;;3.60;;
54883;SDS011;40776;52.880;6.016;2023-04-24T05:50:27;7.13;;;4.13;;
54883;SDS011;40776;52.880;6.016;2023-04-24T05:52:53;8.32;;;4.20;;
54883;SDS011;40776;52.880;6.016;2023-04-24T05:55:19;7.40;;;3.88;;
54883;SDS011;40776;52.880;6.016;2023-04-24T05:57:45;7.55;;;4.00;;
54883;SDS011;40776;52.880;6.016;2023-04-24T06:00:12;8.05;;;3.95;;
54883;SDS011;40776;52.880;6.016;2023-04-24T06:02:38;7.50;;;3.72;;
54883;SDS011;40776;52.880;6.016;2023-04-24T06:05:04;9.95;;;3.78;;
54883;SDS011;40776;52.880;6.016;2023-04-24T06:07:31;8.70;;;4.57;;
54883;SDS011;40776;52.880;6.016;2023-04-24T06:09:57;7.18;;;5.05;;
54883;SDS011;40776;52.880;6.016;2023-04-24T06:12:23;13.73;;;5.57;;
54883;SDS011;40776;52.880;6.016;2023-04-24T06:14:49;9.15;;;4.53;;
54883;SDS011;40776;52.880;6.016;2023-04-24T06:17:15;10.57;;;5.45;;
54883;SDS011;40776;52.880;6.016;2023-04-24T06:19:41;12.57;;;5.70;;
54883;SDS011;40776;52.880;6.016;2023-04-24T06:22:07;8.38;;;5.03;;
54883;SDS011;40776;52.880;6.016;2023-04-24T06:24:34;7.78;;;4.45;;
54883;SDS011;40776;52.880;6.016;2023-04-24T06:27:00;7.72;;;4.53;;
54883;SDS011;40776;52.880;6.016;2023-04-24T06:29:26;7.45;;;4.25;;
54883;SDS011;40776;52.880;6.016;2023-04-24T06:31:52;6.70;;;4.20;;
54883;SDS011;40776;52.880;6.016;2023-04-24T06:34:18;7.55;;;4.30;;
54883;SDS011;40776;52.880;6.016;2023-04-24T06:36:44;4.43;;;2.90;;
54883;SDS011;40776;52.880;6.016;2023-04-24T06:39:10;5.70;;;2.67;;
54883;SDS011;40776;52.880;6.016;2023-04-24T06:41:37;4.07;;;2.03;;
54883;SDS011;40776;52.880;6.016;2023-04-24T06:44:04;4.35;;;1.90;;
54883;SDS011;40776;52.880;6.016;2023-04-24T06:46:30;4.38;;;1.85;;
54883;SDS011;40776;52.880;6.016;2023-04-24T06:48:57;4.15;;;2.03;;
54883;SDS011;40776;52.880;6.016;2023-04-24T06:51:23;3.28;;;1.63;;
54883;SDS011;40776;52.880;6.016;2023-04-24T06:53:51;3.50;;;1.38;;
54883;SDS011;40776;52.880;6.016;2023-04-24T06:56:17;2.97;;;1.38;;
54883;SDS011;40776;52.880;6.016;2023-04-24T06:58:43;4.70;;;1.67;;
54883;SDS011;40776;52.880;6.016;2023-04-24T07:01:10;8.15;;;2.20;;
54883;SDS011;40776;52.880;6.016;2023-04-24T07:03:36;8.55;;;1.83;;
54883;SDS011;40776;52.880;6.016;2023-04-24T07:06:02;8.32;;;3.00;;
54883;SDS011;40776;52.880;6.016;2023-04-24T07:08:29;5.70;;;2.63;;
54883;SDS011;40776;52.880;6.016;2023-04-24T07:10:58;11.80;;;3.50;;
54883;SDS011;40776;52.880;6.016;2023-04-24T07:13:24;14.18;;;5.82;;
54883;SDS011;40776;52.880;6.016;2023-04-24T07:15:51;14.63;;;5.80;;
54883;SDS011;40776;52.880;6.016;2023-04-24T07:18:20;17.00;;;8.63;;
54883;SDS011;40776;52.880;6.016;2023-04-24T07:20:46;18.15;;;9.25;;
54883;SDS011;40776;52.880;6.016;2023-04-24T07:23:12;17.95;;;8.68;;
54883;SDS011;40776;52.880;6.016;2023-04-24T07:25:38;23.40;;;10.25;;
54883;SDS011;40776;52.880;6.016;2023-04-24T07:28:05;25.33;;;12.68;;
54883;SDS011;40776;52.880;6.016;2023-04-24T07:30:31;29.63;;;12.20;;
54883;SDS011;40776;52.880;6.016;2023-04-24T07:32:58;29.45;;;13.82;;
54883;SDS011;40776;52.880;6.016;2023-04-24T07:35:24;28.13;;;12.50;;
54883;SDS011;40776;52.880;6.016;2023-04-24T07:37:51;21.98;;;12.10;;
54883;SDS011;40776;52.880;6.016;2023-04-24T07:40:17;25.55;;;11.93;;
54883;SDS011;40776;52.880;6.016;2023-04-24T07:42:43;23.50;;;11.32;;
54883;SDS011;40776;52.880;6.016;2023-04-24T07:45:09;29.25;;;14.07;;
54883;SDS011;40776;52.880;6.016;2023-04-24T07:47:35;24.48;;;11.30;;
54883;SDS011;40776;52.880;6.016;2023-04-24T07:50:03;23.88;;;12.02;;
54883;SDS011;40776;52.880;6.016;2023-04-24T07:52:29;30.77;;;13.80;;
54883;SDS011;40776;52.880;6.016;2023-04-24T07:54:55;23.73;;;11.32;;
54883;SDS011;40776;52.880;6.016;2023-04-24T07:57:25;20.75;;;12.35;;
54883;SDS011;40776;52.880;6.016;2023-04-24T07:59:51;24.88;;;11.50;;
54883;SDS011;40776;52.880;6.016;2023-04-24T08:02:17;22.90;;;9.70;;
54883;SDS011;40776;52.880;6.016;2023-04-24T08:04:43;18.90;;;10.10;;
54883;SDS011;40776;52.880;6.016;2023-04-24T08:07:10;22.40;;;11.70;;
54883;SDS011;40776;52.880;6.016;2023-04-24T08:09:38;23.73;;;11.52;;
54883;SDS011;40776;52.880;6.016;2023-04-24T08:12:04;25.50;;;12.05;;
54883;SDS011;40776;52.880;6.016;2023-04-24T08:14:30;17.88;;;10.73;;
54883;SDS011;40776;52.880;6.016;2023-04-24T08:16:56;21.55;;;11.38;;
54883;SDS011;40776;52.880;6.016;2023-04-24T08:19:22;17.92;;;9.65;;
54883;SDS011;40776;52.880;6.016;2023-04-24T08:21:48;16.13;;;9.25;;
54883;SDS011;40776;52.880;6.016;2023-04-24T08:24:14;19.17;;;7.35;;
54883;SDS011;40776;52.880;6.016;2023-04-24T08:26:40;16.02;;;8.80;;
54883;SDS011;40776;52.880;6.016;2023-04-24T08:29:06;16.35;;;7.95;;
54883;SDS011;40776;52.880;6.016;2023-04-24T08:31:32;14.35;;;7.82;;
54883;SDS011;40776;52.880;6.016;2023-04-24T08:33:58;10.95;;;5.32;;
54883;SDS011;40776;52.880;6.016;2023-04-24T08:36:25;13.70;;;7.70;;
54883;SDS011;40776;52.880;6.016;2023-04-24T08:38:51;15.82;;;7.03;;
54883;SDS011;40776;52.880;6.016;2023-04-24T08:41:17;15.63;;;6.93;;
54883;SDS011;40776;52.880;6.016;2023-04-24T08:43:45;14.40;;;7.32;;
54883;SDS011;40776;52.880;6.016;2023-04-24T08:46:11;14.73;;;6.90;;
54883;SDS011;40776;52.880;6.016;2023-04-24T08:48:38;16.38;;;6.60;;
54883;SDS011;40776;52.880;6.016;2023-04-24T08:51:08;12.73;;;6.35;;
54883;SDS011;40776;52.880;6.016;2023-04-24T08:53:35;12.55;;;6.20;;
54883;SDS011;40776;52.880;6.016;2023-04-24T08:56:02;13.63;;;5.88;;
54883;SDS011;40776;52.880;6.016;2023-04-24T08:58:28;13.15;;;5.93;;
54883;SDS011;40776;52.880;6.016;2023-04-24T09:00:55;19.05;;;6.10;;
54883;SDS011;40776;52.880;6.016;2023-04-24T09:03:22;9.70;;;5.28;;
54883;SDS011;40776;52.880;6.016;2023-04-24T09:05:48;10.63;;;4.75;;
54883;SDS011;40776;52.880;6.016;2023-04-24T09:08:16;10.73;;;4.80;;
54883;SDS011;40776;52.880;6.016;2023-04-24T09:10:43;12.68;;;5.80;;
54883;SDS011;40776;52.880;6.016;2023-04-24T09:13:09;8.60;;;4.05;;
54883;SDS011;40776;52.880;6.016;2023-04-24T09:15:36;9.55;;;3.58;;
54883;SDS011;40776;52.880;6.016;2023-04-24T09:18:04;7.40;;;3.10;;
54883;SDS011;40776;52.880;6.016;2023-04-24T09:20:30;9.98;;;3.25;;
54883;SDS011;40776;52.880;6.016;2023-04-24T09:22:57;10.68;;;3.78;;
54883;SDS011;40776;52.880;6.016;2023-04-24T09:25:33;13.10;;;3.90;;
54883;SDS011;40776;52.880;6.016;2023-04-24T09:28:01;15.00;;;4.15;;
54883;SDS011;40776;52.880;6.016;2023-04-24T09:30:27;11.43;;;3.67;;
54883;SDS011;40776;52.880;6.016;2023-04-24T09:33:09;13.20;;;3.95;;
54883;SDS011;40776;52.880;6.016;2023-04-24T09:35:35;11.27;;;3.78;;
54883;SDS011;40776;52.880;6.016;2023-04-24T09:38:01;12.02;;;3.10;;
54883;SDS011;40776;52.880;6.016;2023-04-24T09:40:27;8.65;;;2.83;;
54883;SDS011;40776;52.880;6.016;2023-04-24T09:42:57;30.38;;;3.10;;
54883;SDS011;40776;52.880;6.016;2023-04-24T09:45:35;6.57;;;2.50;;
54883;SDS011;40776;52.880;6.016;2023-04-24T09:48:01;9.18;;;3.03;;
54883;SDS011;40776;52.880;6.016;2023-04-24T09:50:29;11.70;;;2.70;;
54883;SDS011;40776;52.880;6.016;2023-04-24T09:53:06;9.13;;;2.33;;
54883;SDS011;40776;52.880;6.016;2023-04-24T09:55:39;7.88;;;2.22;;
54883;SDS011;40776;52.880;6.016;2023-04-24T09:58:07;5.20;;;1.92;;
54883;SDS011;40776;52.880;6.016;2023-04-24T10:00:33;12.20;;;2.58;;
54883;SDS011;40776;52.880;6.016;2023-04-24T10:03:00;10.95;;;2.30;;
54883;SDS011;40776;52.880;6.016;2023-04-24T10:05:30;12.05;;;3.00;;
54883;SDS011;40776;52.880;6.016;2023-04-24T10:10:45;11.63;;;2.45;;
54883;SDS011;40776;52.880;6.016;2023-04-24T10:13:11;6.57;;;2.28;;
54883;SDS011;40776;52.880;6.016;2023-04-24T10:15:38;11.35;;;2.70;;
54883;SDS011;40776;52.880;6.016;2023-04-24T10:18:06;10.40;;;2.00;;
54883;SDS011;40776;52.880;6.016;2023-04-24T10:20:32;10.40;;;2.90;;
54883;SDS011;40776;52.880;6.016;2023-04-24T10:22:59;16.48;;;3.70;;
54883;SDS011;40776;52.880;6.016;2023-04-24T10:25:29;3.90;;;2.03;;
54883;SDS011;40776;52.880;6.016;2023-04-24T10:27:55;13.20;;;2.42;;
54883;SDS011;40776;52.880;6.016;2023-04-24T10:30:25;12.32;;;2.95;;
54883;SDS011;40776;52.880;6.016;2023-04-24T10:32:51;6.80;;;2.03;;
54883;SDS011;40776;52.880;6.016;2023-04-24T10:35:18;9.38;;;1.55;;
54883;SDS011;40776;52.880;6.016;2023-04-24T10:37:51;8.02;;;1.75;;
54883;SDS011;40776;52.880;6.016;2023-04-24T10:40:25;5.93;;;1.40;;
54883;SDS011;40776;52.880;6.016;2023-04-24T10:42:51;11.90;;;2.92;;
54883;SDS011;40776;52.880;6.016;2023-04-24T10:45:21;8.48;;;1.63;;
54883;SDS011;40776;52.880;6.016;2023-04-24T10:47:57;11.18;;;1.80;;
54883;SDS011;40776;52.880;6.016;2023-04-24T10:50:28;14.82;;;1.92;;
54883;SDS011;40776;52.880;6.016;2023-04-24T10:53:04;5.10;;;1.15;;
54883;SDS011;40776;52.880;6.016;2023-04-24T10:58:10;9.38;;;1.35;;
54883;SDS011;40776;52.880;6.016;2023-04-24T11:00:37;6.43;;;2.17;;
54883;SDS011;40776;52.880;6.016;2023-04-24T11:03:04;4.22;;;1.73;;
54883;SDS011;40776;52.880;6.016;2023-04-24T11:08:30;6.22;;;1.20;;
54883;SDS011;40776;52.880;6.016;2023-04-24T11:11:00;7.55;;;1.45;;
54883;SDS011;40776;52.880;6.016;2023-04-24T11:16:14;5.18;;;1.20;;
54883;SDS011;40776;52.880;6.016;2023-04-24T11:18:41;7.22;;;1.85;;
54883;SDS011;40776;52.880;6.016;2023-04-24T11:21:16;6.80;;;1.67;;
54883;SDS011;40776;52.880;6.016;2023-04-24T11:23:42;7.45;;;1.58;;
54883;SDS011;40776;52.880;6.016;2023-04-24T11:28:43;6.78;;;1.52;;
54883;SDS011;40776;52.880;6.016;2023-04-24T11:33:54;7.15;;;1.80;;
54883;SDS011;40776;52.880;6.016;2023-04-24T11:36:20;4.47;;;1.05;;
54883;SDS011;40776;52.880;6.016;2023-04-24T11:38:46;5.97;;;1.42;;
54883;SDS011;40776;52.880;6.016;2023-04-24T11:41:12;5.28;;;1.50;;
54883;SDS011;40776;52.880;6.016;2023-04-24T11:43:39;5.95;;;1.15;;
54883;SDS011;40776;52.880;6.016;2023-04-24T11:46:05;8.77;;;1.15;;
54883;SDS011;40776;52.880;6.016;2023-04-24T11:48:34;4.05;;;0.70;;
54883;SDS011;40776;52.880;6.016;2023-04-24T11:51:01;6.90;;;2.55;;
54883;SDS011;40776;52.880;6.016;2023-04-24T11:53:27;3.13;;;0.70;;
54883;SDS011;40776;52.880;6.016;2023-04-24T11:55:53;2.20;;;0.50;;
54883;SDS011;40776;52.880;6.016;2023-04-24T11:58:22;6.63;;;1.02;;
54883;SDS011;40776;52.880;6.016;2023-04-24T12:00:55;4.10;;;1.15;;
54883;SDS011;40776;52.880;6.016;2023-04-24T12:03:21;3.53;;;0.95;;
54883;SDS011;40776;52.880;6.016;2023-04-24T12:05:47;4.05;;;0.90;;
54883;SDS011;40776;52.880;6.016;2023-04-24T12:08:26;5.53;;;1.10;;
54883;SDS011;40776;52.880;6.016;2023-04-24T12:10:53;3.60;;;0.90;;
54883;SDS011;40776;52.880;6.016;2023-04-24T12:13:19;2.80;;;0.73;;
54883;SDS011;40776;52.880;6.016;2023-04-24T12:15:45;2.92;;;0.70;;
54883;SDS011;40776;52.880;6.016;2023-04-24T12:18:12;4.95;;;1.10;;
54883;SDS011;40776;52.880;6.016;2023-04-24T12:20:40;3.97;;;0.90;;
54883;SDS011;40776;52.880;6.016;2023-04-24T12:23:06;5.55;;;1.30;;
54883;SDS011;40776;52.880;6.016;2023-04-24T12:25:32;4.45;;;0.95;;
54883;SDS011;40776;52.880;6.016;2023-04-24T12:30:31;7.20;;;1.10;;
54883;SDS011;40776;52.880;6.016;2023-04-24T12:32:58;3.25;;;0.88;;
54883;SDS011;40776;52.880;6.016;2023-04-24T12:35:27;7.10;;;1.48;;
54883;SDS011;40776;52.880;6.016;2023-04-24T12:37:53;7.53;;;1.08;;
54883;SDS011;40776;52.880;6.016;2023-04-24T12:40:19;3.35;;;0.70;;
54883;SDS011;40776;52.880;6.016;2023-04-24T12:42:49;4.22;;;0.80;;
54883;SDS011;40776;52.880;6.016;2023-04-24T12:45:16;2.90;;;0.68;;
54883;SDS011;40776;52.880;6.016;2023-04-24T12:47:43;4.30;;;0.75;;
54883;SDS011;40776;52.880;6.016;2023-04-24T12:50:09;1.92;;;0.70;;
54883;SDS011;40776;52.880;6.016;2023-04-24T12:52:36;2.40;;;0.47;;
54883;SDS011;40776;52.880;6.016;2023-04-24T12:55:04;4.10;;;0.90;;
54883;SDS011;40776;52.880;6.016;2023-04-24T12:57:32;7.53;;;0.90;;
54883;SDS011;40776;52.880;6.016;2023-04-24T12:59:58;3.63;;;0.85;;
54883;SDS011;40776;52.880;6.016;2023-04-24T13:02:26;8.02;;;1.10;;
54883;SDS011;40776;52.880;6.016;2023-04-24T13:04:53;4.47;;;1.13;;
54883;SDS011;40776;52.880;6.016;2023-04-24T13:07:19;6.28;;;1.05;;
54883;SDS011;40776;52.880;6.016;2023-04-24T13:09:45;4.45;;;1.13;;
54883;SDS011;40776;52.880;6.016;2023-04-24T13:12:11;6.47;;;1.40;;
54883;SDS011;40776;52.880;6.016;2023-04-24T13:14:38;7.90;;;1.13;;
54883;SDS011;40776;52.880;6.016;2023-04-24T13:17:04;6.35;;;1.92;;
54883;SDS011;40776;52.880;6.016;2023-04-24T13:19:34;9.35;;;1.70;;
54883;SDS011;40776;52.880;6.016;2023-04-24T13:22:01;5.82;;;2.28;;
54883;SDS011;40776;52.880;6.016;2023-04-24T13:24:27;7.80;;;1.23;;
54883;SDS011;40776;52.880;6.016;2023-04-24T13:26:53;9.98;;;1.73;;
54883;SDS011;40776;52.880;6.016;2023-04-24T13:29:19;9.95;;;1.38;;
54883;SDS011;40776;52.880;6.016;2023-04-24T13:31:51;5.57;;;1.50;;
54883;SDS011;40776;52.880;6.016;2023-04-24T13:34:19;9.38;;;1.83;;
54883;SDS011;40776;52.880;6.016;2023-04-24T13:36:45;9.50;;;2.13;;
54883;SDS011;40776;52.880;6.016;2023-04-24T13:39:12;6.90;;;1.13;;
54883;SDS011;40776;52.880;6.016;2023-04-24T13:41:38;7.88;;;2.15;;
54883;SDS011;40776;52.880;6.016;2023-04-24T13:44:04;8.88;;;1.65;;
54883;SDS011;40776;52.880;6.016;2023-04-24T13:46:30;8.77;;;1.70;;
54883;SDS011;40776;52.880;6.016;2023-04-24T13:48:56;11.55;;;1.30;;
54883;SDS011;40776;52.880;6.016;2023-04-24T13:51:23;8.10;;;1.67;;
54883;SDS011;40776;52.880;6.016;2023-04-24T13:53:51;14.77;;;2.53;;
54883;SDS011;40776;52.880;6.016;2023-04-24T13:56:17;5.60;;;1.30;;
54883;SDS011;40776;52.880;6.016;2023-04-24T13:58:43;8.15;;;2.35;;
54883;SDS011;40776;52.880;6.016;2023-04-24T14:01:09;10.07;;;3.00;;
54883;SDS011;40776;52.880;6.016;2023-04-24T14:03:37;11.88;;;3.75;;
54883;SDS011;40776;52.880;6.016;2023-04-24T14:06:03;4.85;;;1.50;;
54883;SDS011;40776;52.880;6.016;2023-04-24T14:08:29;27.38;;;3.38;;
54883;SDS011;40776;52.880;6.016;2023-04-24T14:10:55;14.27;;;2.38;;
54883;SDS011;40776;52.880;6.016;2023-04-24T14:13:21;12.70;;;2.25;;
54883;SDS011;40776;52.880;6.016;2023-04-24T14:15:48;13.00;;;2.55;;
54883;SDS011;40776;52.880;6.016;2023-04-24T14:18:14;8.02;;;1.73;;
54883;SDS011;40776;52.880;6.016;2023-04-24T14:20:40;10.75;;;2.00;;
54883;SDS011;40776;52.880;6.016;2023-04-24T14:23:06;10.77;;;2.05;;
54883;SDS011;40776;52.880;6.016;2023-04-24T14:25:32;10.18;;;1.92;;
54883;SDS011;40776;52.880;6.016;2023-04-24T14:27:58;7.95;;;1.98;;
54883;SDS011;40776;52.880;6.016;2023-04-24T14:30:24;11.25;;;3.15;;
54883;SDS011;40776;52.880;6.016;2023-04-24T14:32:50;9.07;;;1.60;;
54883;SDS011;40776;52.880;6.016;2023-04-24T14:35:17;11.25;;;2.03;;
54883;SDS011;40776;52.880;6.016;2023-04-24T14:37:43;9.45;;;1.85;;
54883;SDS011;40776;52.880;6.016;2023-04-24T14:40:09;12.43;;;1.90;;
54883;SDS011;40776;52.880;6.016;2023-04-24T14:42:35;4.30;;;1.17;;
54883;SDS011;40776;52.880;6.016;2023-04-24T14:45:01;9.77;;;1.35;;
54883;SDS011;40776;52.880;6.016;2023-04-24T14:47:28;6.30;;;1.45;;
54883;SDS011;40776;52.880;6.016;2023-04-24T14:49:54;9.77;;;2.30;;
54883;SDS011;40776;52.880;6.016;2023-04-24T14:52:20;8.27;;;2.88;;
54883;SDS011;40776;52.880;6.016;2023-04-24T14:54:46;4.32;;;1.88;;
54883;SDS011;40776;52.880;6.016;2023-04-24T14:57:12;8.15;;;1.70;;
54883;SDS011;40776;52.880;6.016;2023-04-24T14:59:39;6.85;;;1.88;;